sensor_id;sensor_type;location;lat;lon;timestamp;temperature;humidity
22006;DHT22;11167;46.988;15.470;2023-02-03T00:01:19;5.20;83.80
22006;DHT22;11167;46.988;15.470;2023-02-03T00:03:22;5.20;83.00
22006;DHT22;11167;46.988;15.470;2023-02-03T00:05:23;5.20;83.90
22006;DHT22;11167;46.988;15.470;2023-02-03T00:07:25;5.20;83.20
22006;DHT22;11167;46.988;15.470;2023-02-03T00:09:27;5.20;83.10
22006;DHT22;11167;46.988;15.470;2023-02-03T00:11:29;5.20;83.10
22006;DHT22;11167;46.988;15.470;2023-02-03T00:13:31;5.10;83.00
22006;DHT22;11167;46.988;15.470;2023-02-03T00:15:32;5.20;83.10
22006;DHT22;11167;46.988;15.470;2023-02-03T00:17:33;5.10;83.10
22006;DHT22;11167;46.988;15.470;2023-02-03T00:19:34;5.10;83.10
22006;DHT22;11167;46.988;15.470;2023-02-03T00:21:35;5.10;83.30
22006;DHT22;11167;46.988;15.470;2023-02-03T00:23:37;5.10;83.10
22006;DHT22;11167;46.988;15.470;2023-02-03T00:25:39;5.10;83.10
22006;DHT22;11167;46.988;15.470;2023-02-03T00:27:40;5.10;83.20
22006;DHT22;11167;46.988;15.470;2023-02-03T00:29:41;5.10;83.10
22006;DHT22;11167;46.988;15.470;2023-02-03T00:31:42;5.10;83.20
22006;DHT22;11167;46.988;15.470;2023-02-03T00:33:43;5.10;83.10
22006;DHT22;11167;46.988;15.470;2023-02-03T00:35:44;5.10;83.10
22006;DHT22;11167;46.988;15.470;2023-02-03T00:37:53;5.00;83.10
22006;DHT22;11167;46.988;15.470;2023-02-03T00:39:55;5.00;83.20
22006;DHT22;11167;46.988;15.470;2023-02-03T00:41:56;5.00;83.20
22006;DHT22;11167;46.988;15.470;2023-02-03T00:43:57;5.00;83.10
22006;DHT22;11167;46.988;15.470;2023-02-03T00:46:04;5.00;83.20
22006;DHT22;11167;46.988;15.470;2023-02-03T00:48:05;5.00;83.20
22006;DHT22;11167;46.988;15.470;2023-02-03T00:50:07;5.00;83.20
22006;DHT22;11167;46.988;15.470;2023-02-03T00:52:08;5.00;83.20
22006;DHT22;11167;46.988;15.470;2023-02-03T00:54:10;5.00;83.20
22006;DHT22;11167;46.988;15.470;2023-02-03T00:56:11;4.90;83.10
22006;DHT22;11167;46.988;15.470;2023-02-03T00:58:12;4.90;83.50
22006;DHT22;11167;46.988;15.470;2023-02-03T01:00:14;4.90;83.20
22006;DHT22;11167;46.988;15.470;2023-02-03T01:02:15;4.90;83.10
22006;DHT22;11167;46.988;15.470;2023-02-03T01:04:16;4.90;83.20
22006;DHT22;11167;46.988;15.470;2023-02-03T01:06:19;4.90;83.20
22006;DHT22;11167;46.988;15.470;2023-02-03T01:08:20;4.90;83.20
22006;DHT22;11167;46.988;15.470;2023-02-03T01:10:23;4.90;83.20
22006;DHT22;11167;46.988;15.470;2023-02-03T01:12:24;4.80;83.20
22006;DHT22;11167;46.988;15.470;2023-02-03T01:14:26;4.90;83.30
22006;DHT22;11167;46.988;15.470;2023-02-03T01:16:28;4.80;83.20
22006;DHT22;11167;46.988;15.470;2023-02-03T01:18:30;4.80;83.50
22006;DHT22;11167;46.988;15.470;2023-02-03T01:20:31;4.80;83.20
22006;DHT22;11167;46.988;15.470;2023-02-03T01:22:32;4.80;83.20
22006;DHT22;11167;46.988;15.470;2023-02-03T01:24:34;4.80;83.30
22006;DHT22;11167;46.988;15.470;2023-02-03T01:26:35;4.80;83.30
22006;DHT22;11167;46.988;15.470;2023-02-03T01:28:37;4.80;83.30
22006;DHT22;11167;46.988;15.470;2023-02-03T01:30:38;4.80;83.30
22006;DHT22;11167;46.988;15.470;2023-02-03T01:32:39;4.80;83.30
22006;DHT22;11167;46.988;15.470;2023-02-03T01:34:40;4.80;83.30
22006;DHT22;11167;46.988;15.470;2023-02-03T01:36:41;4.80;83.30
22006;DHT22;11167;46.988;15.470;2023-02-03T01:38:44;4.70;83.20
22006;DHT22;11167;46.988;15.470;2023-02-03T01:40:45;4.70;83.20
22006;DHT22;11167;46.988;15.470;2023-02-03T01:42:46;4.70;83.30
22006;DHT22;11167;46.988;15.470;2023-02-03T01:44:49;4.70;83.40
22006;DHT22;11167;46.988;15.470;2023-02-03T01:46:52;4.70;83.30
22006;DHT22;11167;46.988;15.470;2023-02-03T01:48:57;4.70;83.30
22006;DHT22;11167;46.988;15.470;2023-02-03T01:51:00;4.70;83.30
22006;DHT22;11167;46.988;15.470;2023-02-03T01:53:05;4.70;83.30
22006;DHT22;11167;46.988;15.470;2023-02-03T01:55:09;4.70;83.30
22006;DHT22;11167;46.988;15.470;2023-02-03T01:57:21;4.60;83.40
22006;DHT22;11167;46.988;15.470;2023-02-03T01:59:23;4.60;83.40
22006;DHT22;11167;46.988;15.470;2023-02-03T02:01:26;4.60;83.30
22006;DHT22;11167;46.988;15.470;2023-02-03T02:03:35;4.60;83.30
22006;DHT22;11167;46.988;15.470;2023-02-03T02:05:48;4.60;83.40
22006;DHT22;11167;46.988;15.470;2023-02-03T02:07:51;4.60;83.40
22006;DHT22;11167;46.988;15.470;2023-02-03T02:09:52;4.60;83.40
22006;DHT22;11167;46.988;15.470;2023-02-03T02:11:54;4.60;83.50
22006;DHT22;11167;46.988;15.470;2023-02-03T02:13:58;4.50;83.30
22006;DHT22;11167;46.988;15.470;2023-02-03T02:16:35;4.50;83.30
22006;DHT22;11167;46.988;15.470;2023-02-03T02:21:01;4.50;83.50
22006;DHT22;11167;46.988;15.470;2023-02-03T02:23:10;4.50;83.50
22006;DHT22;11167;46.988;15.470;2023-02-03T02:28:19;4.50;83.50
22006;DHT22;11167;46.988;15.470;2023-02-03T02:41:58;4.40;83.60
22006;DHT22;11167;46.988;15.470;2023-02-03T02:46:52;4.40;83.70
22006;DHT22;11167;46.988;15.470;2023-02-03T02:51:05;4.30;83.80
22006;DHT22;11167;46.988;15.470;2023-02-03T02:53:09;4.30;83.70
22006;DHT22;11167;46.988;15.470;2023-02-03T02:55:14;4.30;83.70
22006;DHT22;11167;46.988;15.470;2023-02-03T02:57:17;4.30;83.70
22006;DHT22;11167;46.988;15.470;2023-02-03T02:59:19;4.30;83.80
22006;DHT22;11167;46.988;15.470;2023-02-03T03:01:21;4.30;83.80
22006;DHT22;11167;46.988;15.470;2023-02-03T03:03:23;4.30;83.80
22006;DHT22;11167;46.988;15.470;2023-02-03T03:05:25;4.30;83.80
22006;DHT22;11167;46.988;15.470;2023-02-03T03:07:28;4.30;83.70
22006;DHT22;11167;46.988;15.470;2023-02-03T03:09:32;4.30;83.70
22006;DHT22;11167;46.988;15.470;2023-02-03T03:11:39;4.30;83.70
22006;DHT22;11167;46.988;15.470;2023-02-03T03:13:47;4.30;83.80
22006;DHT22;11167;46.988;15.470;2023-02-03T03:15:50;4.30;83.80
22006;DHT22;11167;46.988;15.470;2023-02-03T03:17:55;4.30;83.80
22006;DHT22;11167;46.988;15.470;2023-02-03T03:19:59;4.30;83.80
22006;DHT22;11167;46.988;15.470;2023-02-03T03:22:04;4.30;83.80
22006;DHT22;11167;46.988;15.470;2023-02-03T03:24:08;4.30;83.90
22006;DHT22;11167;46.988;15.470;2023-02-03T03:26:29;4.30;83.90
22006;DHT22;11167;46.988;15.470;2023-02-03T03:28:34;4.20;83.90
22006;DHT22;11167;46.988;15.470;2023-02-03T03:30:36;4.20;83.80
22006;DHT22;11167;46.988;15.470;2023-02-03T03:32:39;4.20;83.80
22006;DHT22;11167;46.988;15.470;2023-02-03T03:34:41;4.20;83.80
22006;DHT22;11167;46.988;15.470;2023-02-03T03:36:49;4.20;83.80
22006;DHT22;11167;46.988;15.470;2023-02-03T03:39:02;4.20;83.80
22006;DHT22;11167;46.988;15.470;2023-02-03T03:41:12;4.20;83.80
22006;DHT22;11167;46.988;15.470;2023-02-03T03:43:14;4.20;83.90
22006;DHT22;11167;46.988;15.470;2023-02-03T03:45:20;4.20;83.80
22006;DHT22;11167;46.988;15.470;2023-02-03T03:47:37;4.20;84.60
22006;DHT22;11167;46.988;15.470;2023-02-03T03:49:39;4.20;84.00
22006;DHT22;11167;46.988;15.470;2023-02-03T03:51:43;4.10;84.70
22006;DHT22;11167;46.988;15.470;2023-02-03T03:53:46;4.10;84.50
22006;DHT22;11167;46.988;15.470;2023-02-03T03:55:50;4.10;84.00
22006;DHT22;11167;46.988;15.470;2023-02-03T03:58:04;4.10;84.00
22006;DHT22;11167;46.988;15.470;2023-02-03T04:00:09;4.10;84.00
22006;DHT22;11167;46.988;15.470;2023-02-03T04:02:12;4.10;84.00
22006;DHT22;11167;46.988;15.470;2023-02-03T04:04:15;4.10;83.90
22006;DHT22;11167;46.988;15.470;2023-02-03T04:06:16;4.10;83.90
22006;DHT22;11167;46.988;15.470;2023-02-03T04:08:17;4.10;83.90
22006;DHT22;11167;46.988;15.470;2023-02-03T04:10:30;4.00;83.80
22006;DHT22;11167;46.988;15.470;2023-02-03T04:12:29;4.10;84.00
22006;DHT22;11167;46.988;15.470;2023-02-03T04:14:34;4.00;83.80
22006;DHT22;11167;46.988;15.470;2023-02-03T04:16:38;4.00;83.80
22006;DHT22;11167;46.988;15.470;2023-02-03T04:18:39;4.00;83.90
22006;DHT22;11167;46.988;15.470;2023-02-03T04:20:40;4.00;83.90
22006;DHT22;11167;46.988;15.470;2023-02-03T04:22:42;4.00;84.80
22006;DHT22;11167;46.988;15.470;2023-02-03T04:24:43;4.00;83.80
22006;DHT22;11167;46.988;15.470;2023-02-03T04:26:44;4.00;83.90
22006;DHT22;11167;46.988;15.470;2023-02-03T04:28:45;4.00;84.00
22006;DHT22;11167;46.988;15.470;2023-02-03T04:30:46;4.00;83.90
22006;DHT22;11167;46.988;15.470;2023-02-03T04:32:47;4.00;83.90
22006;DHT22;11167;46.988;15.470;2023-02-03T04:34:48;4.00;83.90
22006;DHT22;11167;46.988;15.470;2023-02-03T04:36:50;4.00;83.90
22006;DHT22;11167;46.988;15.470;2023-02-03T04:38:51;4.00;84.00
22006;DHT22;11167;46.988;15.470;2023-02-03T04:40:52;4.00;84.00
22006;DHT22;11167;46.988;15.470;2023-02-03T04:42:53;4.00;84.00
22006;DHT22;11167;46.988;15.470;2023-02-03T04:44:54;4.00;84.00
22006;DHT22;11167;46.988;15.470;2023-02-03T04:46:55;4.00;84.00
22006;DHT22;11167;46.988;15.470;2023-02-03T04:48:57;4.00;84.00
22006;DHT22;11167;46.988;15.470;2023-02-03T04:51:01;4.00;84.00
22006;DHT22;11167;46.988;15.470;2023-02-03T04:53:03;4.00;84.00
22006;DHT22;11167;46.988;15.470;2023-02-03T04:55:04;4.00;84.00
22006;DHT22;11167;46.988;15.470;2023-02-03T04:57:06;3.90;84.00
22006;DHT22;11167;46.988;15.470;2023-02-03T04:59:07;3.90;83.90
22006;DHT22;11167;46.988;15.470;2023-02-03T05:01:10;3.90;84.00
22006;DHT22;11167;46.988;15.470;2023-02-03T05:03:11;3.90;84.00
22006;DHT22;11167;46.988;15.470;2023-02-03T05:05:12;3.90;84.00
22006;DHT22;11167;46.988;15.470;2023-02-03T05:07:14;3.90;84.00
22006;DHT22;11167;46.988;15.470;2023-02-03T05:09:15;3.90;84.00
22006;DHT22;11167;46.988;15.470;2023-02-03T05:11:17;3.90;84.00
22006;DHT22;11167;46.988;15.470;2023-02-03T05:13:18;3.90;84.00
22006;DHT22;11167;46.988;15.470;2023-02-03T05:15:20;3.90;84.40
22006;DHT22;11167;46.988;15.470;2023-02-03T05:17:21;3.90;84.10
22006;DHT22;11167;46.988;15.470;2023-02-03T05:19:22;3.90;84.00
22006;DHT22;11167;46.988;15.470;2023-02-03T05:21:23;3.90;84.00
22006;DHT22;11167;46.988;15.470;2023-02-03T05:23:24;3.90;84.00
22006;DHT22;11167;46.988;15.470;2023-02-03T05:25:26;3.90;84.20
22006;DHT22;11167;46.988;15.470;2023-02-03T05:27:27;3.90;84.10
22006;DHT22;11167;46.988;15.470;2023-02-03T05:29:28;3.90;84.70
22006;DHT22;11167;46.988;15.470;2023-02-03T05:31:29;3.90;84.10
22006;DHT22;11167;46.988;15.470;2023-02-03T05:33:30;3.90;84.20
22006;DHT22;11167;46.988;15.470;2023-02-03T05:35:32;3.90;84.20
22006;DHT22;11167;46.988;15.470;2023-02-03T05:37:33;3.90;84.10
22006;DHT22;11167;46.988;15.470;2023-02-03T05:39:34;3.90;84.10
22006;DHT22;11167;46.988;15.470;2023-02-03T05:41:35;3.90;84.10
22006;DHT22;11167;46.988;15.470;2023-02-03T05:43:52;3.90;84.20
22006;DHT22;11167;46.988;15.470;2023-02-03T05:45:53;3.80;84.20
22006;DHT22;11167;46.988;15.470;2023-02-03T05:47:54;3.90;84.20
22006;DHT22;11167;46.988;15.470;2023-02-03T05:49:56;3.80;84.20
22006;DHT22;11167;46.988;15.470;2023-02-03T05:51:57;3.80;84.10
22006;DHT22;11167;46.988;15.470;2023-02-03T05:53:59;3.80;84.10
22006;DHT22;11167;46.988;15.470;2023-02-03T05:56:00;3.80;84.10
22006;DHT22;11167;46.988;15.470;2023-02-03T05:58:03;3.80;84.20
22006;DHT22;11167;46.988;15.470;2023-02-03T06:00:05;3.80;84.20
22006;DHT22;11167;46.988;15.470;2023-02-03T06:02:07;3.80;84.20
22006;DHT22;11167;46.988;15.470;2023-02-03T06:04:08;3.80;84.80
22006;DHT22;11167;46.988;15.470;2023-02-03T06:06:09;3.80;84.20
22006;DHT22;11167;46.988;15.470;2023-02-03T06:08:11;3.80;84.20
22006;DHT22;11167;46.988;15.470;2023-02-03T06:10:12;3.80;84.20
22006;DHT22;11167;46.988;15.470;2023-02-03T06:12:14;3.80;84.20
22006;DHT22;11167;46.988;15.470;2023-02-03T06:14:15;3.80;84.20
22006;DHT22;11167;46.988;15.470;2023-02-03T06:16:16;3.80;84.20
22006;DHT22;11167;46.988;15.470;2023-02-03T06:18:18;3.80;84.40
22006;DHT22;11167;46.988;15.470;2023-02-03T06:20:19;3.80;84.30
22006;DHT22;11167;46.988;15.470;2023-02-03T06:22:21;3.80;84.20
22006;DHT22;11167;46.988;15.470;2023-02-03T06:24:22;3.80;84.30
22006;DHT22;11167;46.988;15.470;2023-02-03T06:26:24;3.80;84.30
22006;DHT22;11167;46.988;15.470;2023-02-03T06:28:25;3.80;84.40
22006;DHT22;11167;46.988;15.470;2023-02-03T06:30:27;3.80;84.40
22006;DHT22;11167;46.988;15.470;2023-02-03T06:32:28;3.80;84.30
22006;DHT22;11167;46.988;15.470;2023-02-03T06:34:29;3.80;84.30
22006;DHT22;11167;46.988;15.470;2023-02-03T06:36:30;3.80;84.30
22006;DHT22;11167;46.988;15.470;2023-02-03T06:38:32;3.80;84.40
22006;DHT22;11167;46.988;15.470;2023-02-03T06:40:34;3.80;85.20
22006;DHT22;11167;46.988;15.470;2023-02-03T06:42:35;3.80;84.30
22006;DHT22;11167;46.988;15.470;2023-02-03T06:44:36;3.80;84.30
22006;DHT22;11167;46.988;15.470;2023-02-03T06:46:37;3.80;83.60
22006;DHT22;11167;46.988;15.470;2023-02-03T06:48:38;3.80;84.40
22006;DHT22;11167;46.988;15.470;2023-02-03T06:50:40;3.80;84.40
22006;DHT22;11167;46.988;15.470;2023-02-03T06:52:41;3.80;84.50
22006;DHT22;11167;46.988;15.470;2023-02-03T06:54:42;3.80;84.40
22006;DHT22;11167;46.988;15.470;2023-02-03T06:56:44;3.80;84.40
22006;DHT22;11167;46.988;15.470;2023-02-03T06:58:45;3.80;84.40
22006;DHT22;11167;46.988;15.470;2023-02-03T07:00:46;3.80;84.40
22006;DHT22;11167;46.988;15.470;2023-02-03T07:02:54;3.70;84.40
22006;DHT22;11167;46.988;15.470;2023-02-03T07:04:56;3.70;84.40
22006;DHT22;11167;46.988;15.470;2023-02-03T07:06:57;3.70;84.40
22006;DHT22;11167;46.988;15.470;2023-02-03T07:09:04;3.70;84.50
22006;DHT22;11167;46.988;15.470;2023-02-03T07:11:02;3.80;84.50
22006;DHT22;11167;46.988;15.470;2023-02-03T07:13:06;3.70;84.50
22006;DHT22;11167;46.988;15.470;2023-02-03T07:15:09;3.70;84.60
22006;DHT22;11167;46.988;15.470;2023-02-03T07:17:10;3.70;84.60
22006;DHT22;11167;46.988;15.470;2023-02-03T07:19:11;3.70;84.50
22006;DHT22;11167;46.988;15.470;2023-02-03T07:21:13;3.70;84.60
22006;DHT22;11167;46.988;15.470;2023-02-03T07:23:15;3.70;84.60
22006;DHT22;11167;46.988;15.470;2023-02-03T07:25:16;3.70;84.60
22006;DHT22;11167;46.988;15.470;2023-02-03T07:27:17;3.70;84.60
22006;DHT22;11167;46.988;15.470;2023-02-03T07:29:20;3.70;84.60
22006;DHT22;11167;46.988;15.470;2023-02-03T07:31:21;3.70;84.60
22006;DHT22;11167;46.988;15.470;2023-02-03T07:33:22;3.70;84.70
22006;DHT22;11167;46.988;15.470;2023-02-03T07:35:24;3.80;84.70
22006;DHT22;11167;46.988;15.470;2023-02-03T07:37:25;3.70;84.60
22006;DHT22;11167;46.988;15.470;2023-02-03T07:39:27;3.70;84.60
22006;DHT22;11167;46.988;15.470;2023-02-03T07:41:28;3.70;84.60
22006;DHT22;11167;46.988;15.470;2023-02-03T07:43:29;3.70;84.60
22006;DHT22;11167;46.988;15.470;2023-02-03T07:45:30;3.70;84.60
22006;DHT22;11167;46.988;15.470;2023-02-03T07:47:32;3.70;84.60
22006;DHT22;11167;46.988;15.470;2023-02-03T07:49:33;3.70;84.70
22006;DHT22;11167;46.988;15.470;2023-02-03T07:51:35;3.70;84.70
22006;DHT22;11167;46.988;15.470;2023-02-03T07:53:36;3.70;84.70
22006;DHT22;11167;46.988;15.470;2023-02-03T07:55:43;3.70;84.80
22006;DHT22;11167;46.988;15.470;2023-02-03T07:57:44;3.70;84.70
22006;DHT22;11167;46.988;15.470;2023-02-03T07:59:45;3.70;84.80
22006;DHT22;11167;46.988;15.470;2023-02-03T08:01:47;3.70;84.70
22006;DHT22;11167;46.988;15.470;2023-02-03T08:03:48;3.70;84.80
22006;DHT22;11167;46.988;15.470;2023-02-03T08:05:49;3.70;84.70
22006;DHT22;11167;46.988;15.470;2023-02-03T08:07:51;3.70;84.80
22006;DHT22;11167;46.988;15.470;2023-02-03T08:09:53;3.70;84.80
22006;DHT22;11167;46.988;15.470;2023-02-03T08:11:54;3.70;84.80
22006;DHT22;11167;46.988;15.470;2023-02-03T08:13:55;3.70;84.80
22006;DHT22;11167;46.988;15.470;2023-02-03T08:15:56;3.70;84.80
22006;DHT22;11167;46.988;15.470;2023-02-03T08:17:57;3.70;84.80
22006;DHT22;11167;46.988;15.470;2023-02-03T08:19:59;3.70;84.80
22006;DHT22;11167;46.988;15.470;2023-02-03T08:22:00;3.70;84.80
22006;DHT22;11167;46.988;15.470;2023-02-03T08:24:01;3.70;84.80
22006;DHT22;11167;46.988;15.470;2023-02-03T08:26:03;3.70;84.80
22006;DHT22;11167;46.988;15.470;2023-02-03T08:28:04;3.70;84.90
22006;DHT22;11167;46.988;15.470;2023-02-03T08:30:08;3.70;84.80
22006;DHT22;11167;46.988;15.470;2023-02-03T08:32:11;3.70;84.80
22006;DHT22;11167;46.988;15.470;2023-02-03T08:34:12;3.70;84.90
22006;DHT22;11167;46.988;15.470;2023-02-03T08:36:13;3.70;84.80
22006;DHT22;11167;46.988;15.470;2023-02-03T08:38:15;3.70;84.80
22006;DHT22;11167;46.988;15.470;2023-02-03T08:40:16;3.70;84.80
22006;DHT22;11167;46.988;15.470;2023-02-03T08:42:18;3.70;84.80
22006;DHT22;11167;46.988;15.470;2023-02-03T08:44:19;3.70;84.80
22006;DHT22;11167;46.988;15.470;2023-02-03T08:46:20;3.70;84.80
22006;DHT22;11167;46.988;15.470;2023-02-03T08:48:21;3.70;84.80
22006;DHT22;11167;46.988;15.470;2023-02-03T08:50:23;3.70;84.90
22006;DHT22;11167;46.988;15.470;2023-02-03T08:52:24;3.70;84.90
22006;DHT22;11167;46.988;15.470;2023-02-03T08:54:25;3.70;84.90
22006;DHT22;11167;46.988;15.470;2023-02-03T08:56:26;3.70;84.90
22006;DHT22;11167;46.988;15.470;2023-02-03T08:58:27;3.70;84.80
22006;DHT22;11167;46.988;15.470;2023-02-03T09:00:28;3.70;84.90
22006;DHT22;11167;46.988;15.470;2023-02-03T09:02:29;3.70;85.00
22006;DHT22;11167;46.988;15.470;2023-02-03T09:04:31;3.70;85.00
22006;DHT22;11167;46.988;15.470;2023-02-03T09:06:34;3.70;85.00
22006;DHT22;11167;46.988;15.470;2023-02-03T09:08:35;3.70;85.00
22006;DHT22;11167;46.988;15.470;2023-02-03T09:10:36;3.80;85.00
22006;DHT22;11167;46.988;15.470;2023-02-03T09:12:37;3.80;85.10
22006;DHT22;11167;46.988;15.470;2023-02-03T09:14:39;3.80;85.40
22006;DHT22;11167;46.988;15.470;2023-02-03T09:16:40;3.80;85.10
22006;DHT22;11167;46.988;15.470;2023-02-03T09:18:41;3.80;85.20
22006;DHT22;11167;46.988;15.470;2023-02-03T09:20:42;3.80;85.10
22006;DHT22;11167;46.988;15.470;2023-02-03T09:22:43;3.80;85.10
22006;DHT22;11167;46.988;15.470;2023-02-03T09:24:44;3.80;85.00
22006;DHT22;11167;46.988;15.470;2023-02-03T09:26:46;3.80;85.10
22006;DHT22;11167;46.988;15.470;2023-02-03T09:28:47;3.80;85.10
22006;DHT22;11167;46.988;15.470;2023-02-03T09:30:48;3.80;85.20
22006;DHT22;11167;46.988;15.470;2023-02-03T09:32:51;3.80;85.10
22006;DHT22;11167;46.988;15.470;2023-02-03T09:34:54;3.80;85.20
22006;DHT22;11167;46.988;15.470;2023-02-03T09:37:14;3.80;85.20
22006;DHT22;11167;46.988;15.470;2023-02-03T09:39:16;3.70;85.10
22006;DHT22;11167;46.988;15.470;2023-02-03T09:46:16;3.90;85.20
22006;DHT22;11167;46.988;15.470;2023-02-03T09:48:20;3.90;85.20
22006;DHT22;11167;46.988;15.470;2023-02-03T09:50:25;3.90;85.30
22006;DHT22;11167;46.988;15.470;2023-02-03T09:52:32;3.90;85.30
22006;DHT22;11167;46.988;15.470;2023-02-03T09:54:57;3.90;85.30
22006;DHT22;11167;46.988;15.470;2023-02-03T09:56:57;3.90;85.30
22006;DHT22;11167;46.988;15.470;2023-02-03T09:59:00;3.90;85.30
22006;DHT22;11167;46.988;15.470;2023-02-03T10:01:05;3.90;85.30
22006;DHT22;11167;46.988;15.470;2023-02-03T10:03:25;3.90;85.30
22006;DHT22;11167;46.988;15.470;2023-02-03T10:08:04;4.00;85.30
22006;DHT22;11167;46.988;15.470;2023-02-03T10:10:35;4.00;85.40
22006;DHT22;11167;46.988;15.470;2023-02-03T10:12:52;4.00;85.50
22006;DHT22;11167;46.988;15.470;2023-02-03T10:17:44;4.00;85.50
22006;DHT22;11167;46.988;15.470;2023-02-03T10:21:57;4.00;85.50
22006;DHT22;11167;46.988;15.470;2023-02-03T10:23:59;4.00;85.60
22006;DHT22;11167;46.988;15.470;2023-02-03T10:26:04;4.10;85.70
22006;DHT22;11167;46.988;15.470;2023-02-03T10:28:18;4.10;85.70
22006;DHT22;11167;46.988;15.470;2023-02-03T10:30:26;4.10;85.70
22006;DHT22;11167;46.988;15.470;2023-02-03T10:32:27;4.10;85.70
22006;DHT22;11167;46.988;15.470;2023-02-03T10:34:28;4.20;85.90
22006;DHT22;11167;46.988;15.470;2023-02-03T10:36:44;4.20;85.80
22006;DHT22;11167;46.988;15.470;2023-02-03T10:39:09;4.20;85.80
22006;DHT22;11167;46.988;15.470;2023-02-03T10:41:08;4.20;85.90
22006;DHT22;11167;46.988;15.470;2023-02-03T10:43:10;4.20;85.80
22006;DHT22;11167;46.988;15.470;2023-02-03T10:45:32;4.30;85.90
22006;DHT22;11167;46.988;15.470;2023-02-03T10:47:41;4.30;85.90
22006;DHT22;11167;46.988;15.470;2023-02-03T10:49:42;4.30;86.00
22006;DHT22;11167;46.988;15.470;2023-02-03T10:51:47;4.30;86.10
22006;DHT22;11167;46.988;15.470;2023-02-03T10:53:49;4.40;86.00
22006;DHT22;11167;46.988;15.470;2023-02-03T10:56:00;4.40;86.20
22006;DHT22;11167;46.988;15.470;2023-02-03T10:58:05;4.40;86.70
22006;DHT22;11167;46.988;15.470;2023-02-03T11:00:27;4.40;86.30
22006;DHT22;11167;46.988;15.470;2023-02-03T11:02:26;4.40;86.20
22006;DHT22;11167;46.988;15.470;2023-02-03T11:04:31;4.50;86.40
22006;DHT22;11167;46.988;15.470;2023-02-03T11:06:33;4.50;86.40
22006;DHT22;11167;46.988;15.470;2023-02-03T11:08:39;4.50;86.40
22006;DHT22;11167;46.988;15.470;2023-02-03T11:10:40;4.50;86.50
22006;DHT22;11167;46.988;15.470;2023-02-03T11:12:42;4.60;86.60
22006;DHT22;11167;46.988;15.470;2023-02-03T11:14:53;4.60;86.60
22006;DHT22;11167;46.988;15.470;2023-02-03T11:16:51;4.60;86.60
22006;DHT22;11167;46.988;15.470;2023-02-03T11:19:00;4.70;86.70
22006;DHT22;11167;46.988;15.470;2023-02-03T11:21:15;4.70;86.70
22006;DHT22;11167;46.988;15.470;2023-02-03T11:23:18;4.70;86.90
22006;DHT22;11167;46.988;15.470;2023-02-03T11:25:31;4.80;87.10
22006;DHT22;11167;46.988;15.470;2023-02-03T11:27:32;4.80;87.00
22006;DHT22;11167;46.988;15.470;2023-02-03T11:29:39;4.90;87.10
22006;DHT22;11167;46.988;15.470;2023-02-03T11:31:37;4.90;87.10
22006;DHT22;11167;46.988;15.470;2023-02-03T11:33:38;4.90;87.80
22006;DHT22;11167;46.988;15.470;2023-02-03T11:35:50;5.00;87.30
22006;DHT22;11167;46.988;15.470;2023-02-03T11:37:50;5.00;87.30
22006;DHT22;11167;46.988;15.470;2023-02-03T11:39:48;5.00;87.40
22006;DHT22;11167;46.988;15.470;2023-02-03T11:41:49;5.00;87.50
22006;DHT22;11167;46.988;15.470;2023-02-03T11:43:52;5.10;87.40
22006;DHT22;11167;46.988;15.470;2023-02-03T11:46:00;5.10;87.50
22006;DHT22;11167;46.988;15.470;2023-02-03T11:57:46;5.30;87.70
22006;DHT22;11167;46.988;15.470;2023-02-03T12:06:54;5.50;88.00
22006;DHT22;11167;46.988;15.470;2023-02-03T12:22:34;5.90;88.50
22006;DHT22;11167;46.988;15.470;2023-02-03T12:27:19;6.00;88.50
22006;DHT22;11167;46.988;15.470;2023-02-03T12:29:38;6.00;88.50
22006;DHT22;11167;46.988;15.470;2023-02-03T12:36:25;6.20;88.70
22006;DHT22;11167;46.988;15.470;2023-02-03T12:38:33;6.20;88.80
22006;DHT22;11167;46.988;15.470;2023-02-03T12:42:53;6.30;88.90
22006;DHT22;11167;46.988;15.470;2023-02-03T12:45:01;6.30;89.00
22006;DHT22;11167;46.988;15.470;2023-02-03T12:47:21;6.40;89.00
22006;DHT22;11167;46.988;15.470;2023-02-03T12:51:58;6.50;89.00
22006;DHT22;11167;46.988;15.470;2023-02-03T12:54:00;6.50;88.80
22006;DHT22;11167;46.988;15.470;2023-02-03T12:56:21;6.60;89.10
22006;DHT22;11167;46.988;15.470;2023-02-03T13:00:50;6.70;89.30
22006;DHT22;11167;46.988;15.470;2023-02-03T13:07:46;6.80;89.40
22006;DHT22;11167;46.988;15.470;2023-02-03T13:09:58;6.90;89.40
22006;DHT22;11167;46.988;15.470;2023-02-03T13:14:41;6.90;89.60
22006;DHT22;11167;46.988;15.470;2023-02-03T13:16:43;7.00;89.50
22006;DHT22;11167;46.988;15.470;2023-02-03T13:18:49;7.00;89.50
22006;DHT22;11167;46.988;15.470;2023-02-03T13:20:52;7.10;89.60
22006;DHT22;11167;46.988;15.470;2023-02-03T13:22:54;7.10;89.50
22006;DHT22;11167;46.988;15.470;2023-02-03T13:25:08;7.20;89.60
22006;DHT22;11167;46.988;15.470;2023-02-03T13:29:22;7.30;89.70
22006;DHT22;11167;46.988;15.470;2023-02-03T13:39:05;7.50;89.80
22006;DHT22;11167;46.988;15.470;2023-02-03T13:40:55;7.50;89.90
22006;DHT22;11167;46.988;15.470;2023-02-03T13:43:01;7.50;89.90
22006;DHT22;11167;46.988;15.470;2023-02-03T13:45:30;7.60;90.00
22006;DHT22;11167;46.988;15.470;2023-02-03T13:47:26;7.60;89.90
22006;DHT22;11167;46.988;15.470;2023-02-03T13:49:33;7.70;90.00
22006;DHT22;11167;46.988;15.470;2023-02-03T13:51:43;7.70;90.00
22006;DHT22;11167;46.988;15.470;2023-02-03T13:53:46;7.80;90.00
22006;DHT22;11167;46.988;15.470;2023-02-03T13:58:23;7.80;90.00
22006;DHT22;11167;46.988;15.470;2023-02-03T14:02:52;7.90;90.00
22006;DHT22;11167;46.988;15.470;2023-02-03T14:04:56;7.90;90.00
22006;DHT22;11167;46.988;15.470;2023-02-03T14:07:00;8.00;90.00
22006;DHT22;11167;46.988;15.470;2023-02-03T14:09:18;8.00;90.00
22006;DHT22;11167;46.988;15.470;2023-02-03T14:11:39;8.00;90.00
22006;DHT22;11167;46.988;15.470;2023-02-03T14:13:41;8.10;90.00
22006;DHT22;11167;46.988;15.470;2023-02-03T14:15:42;8.10;90.00
22006;DHT22;11167;46.988;15.470;2023-02-03T14:24:07;8.20;90.10
22006;DHT22;11167;46.988;15.470;2023-02-03T14:26:18;8.30;90.10
22006;DHT22;11167;46.988;15.470;2023-02-03T14:28:42;8.30;90.10
22006;DHT22;11167;46.988;15.470;2023-02-03T14:30:24;8.30;90.10
22006;DHT22;11167;46.988;15.470;2023-02-03T14:32:46;8.30;90.10
22006;DHT22;11167;46.988;15.470;2023-02-03T14:34:44;8.40;90.10
22006;DHT22;11167;46.988;15.470;2023-02-03T14:36:54;8.40;90.10
22006;DHT22;11167;46.988;15.470;2023-02-03T14:38:57;8.40;90.10
22006;DHT22;11167;46.988;15.470;2023-02-03T14:41:01;8.50;90.10
22006;DHT22;11167;46.988;15.470;2023-02-03T14:47:54;8.60;90.10
22006;DHT22;11167;46.988;15.470;2023-02-03T14:54:32;8.60;90.20
22006;DHT22;11167;46.988;15.470;2023-02-03T14:59:17;8.60;90.10
22006;DHT22;11167;46.988;15.470;2023-02-03T15:03:49;8.70;90.10